Time;durP1;ratioP1;P1;durP2;ratioP2;P2;SDS_P1;SDS_P2;PMS_P1;PMS_P2;Temp;Humidity;BMP_temperature;BMP_pressure;BME280_temperature;BME280_humidity;BME280_pressure;Samples;Min_cycle;Max_cycle;Signal;HPM_P1;HPM_P2
2023/02/17 00:02:28;;;;;;;;;;;;;;;9.96;100.00;101889.19;10498379;28;19974;-72
2023/02/17 00:07:30;;;;;;;;;;;;;;;9.98;100.00;101890.84;10481251;28;20003;-72
2023/02/17 00:12:32;;;;;;;;;;;;;;;9.86;100.00;101886.06;10480301;28;19936;-72
2023/02/17 00:17:35;;;;;;;;;;;;;;;10.02;100.00;101881.13;10498728;28;19924;-72
2023/02/17 00:22:37;;;;;;;;;;;;;;;10.19;100.00;101880.50;10498812;28;19924;-72
2023/02/17 00:27:39;;;;;;;;;;;;;;;9.98;100.00;101869.91;10497808;28;19928;-71
2023/02/17 00:32:41;;;;;;;;;;;;;;;10.01;100.00;101868.94;10498554;28;19924;-72
2023/02/17 00:37:44;;;;;;;;;;;;;;;9.90;100.00;101869.38;10480589;28;20046;-72
2023/02/17 00:42:47;;;;;;;;;;;;;;;9.99;100.00;101874.22;10495646;28;19924;-72
2023/02/17 00:47:49;;;;;;;;;;;;;;;9.92;100.00;101862.31;10498216;28;19935;-71
2023/02/17 00:52:52;;;;;;;;;;;;;;;9.93;100.00;101861.38;10497528;28;19947;-71
2023/02/17 00:57:54;;;;;;;;;;;;;;;10.01;100.00;101859.31;10497131;28;19939;-71
2023/02/17 01:02:56;;;;;;;;;;;;;;;10.12;100.00;101864.16;10497178;28;19991;-72
2023/02/17 01:07:58;;;;;;;;;;;;;;;9.98;100.00;101858.59;10496982;28;19924;-71
2023/02/17 01:13:01;;;;;;;;;;;;;;;10.01;100.00;101853.25;10495822;28;19932;-71
2023/02/17 01:18:03;;;;;;;;;;;;;;;10.06;100.00;101840.84;10479788;28;19978;-72
2023/02/17 01:23:05;;;;;;;;;;;;;;;10.03;100.00;101820.88;10483161;28;19947;-72
2023/02/17 01:28:08;;;;;;;;;;;;;;;10.14;100.00;101827.47;10504187;28;19970;-72
2023/02/17 01:33:10;;;;;;;;;;;;;;;10.23;100.00;101827.09;10487162;28;19931;-71
2023/02/17 01:38:12;;;;;;;;;;;;;;;9.93;100.00;101834.38;10503633;28;19924;-71
2023/02/17 01:43:15;;;;;;;;;;;;;;;9.92;100.00;101830.91;10502791;28;19924;-71
2023/02/17 01:48:19;;;;;;;;;;;;;;;10.06;100.00;101826.91;10486386;28;19925;-71
2023/02/17 01:53:23;;;;;;;;;;;;;;;10.01;100.00;101827.09;10503108;28;19925;-72
2023/02/17 01:58:25;;;;;;;;;;;;;;;10.09;100.00;101821.56;10502883;28;19931;-72
2023/02/17 02:03:28;;;;;;;;;;;;;;;9.98;100.00;101824.59;10484896;28;19932;-71
2023/02/17 02:08:31;;;;;;;;;;;;;;;10.12;100.00;101808.34;10502035;28;20397;-72
2023/02/17 02:13:34;;;;;;;;;;;;;;;10.14;100.00;101796.91;10484816;28;19932;-71
2023/02/17 02:18:39;;;;;;;;;;;;;;;10.06;100.00;101798.97;10501314;28;19924;-71
2023/02/17 02:24:00;;;;;;;;;;;;;;;10.06;100.00;101800.75;10500979;28;20376;-71
2023/02/17 02:29:06;;;;;;;;;;;;;;;9.97;100.00;101789.72;10502506;28;19931;-71
2023/02/17 02:34:09;;;;;;;;;;;;;;;9.96;100.00;101792.41;10501285;28;19924;-71
2023/02/17 02:39:18;;;;;;;;;;;;;;;10.10;100.00;101763.06;10482873;28;19931;-71
2023/02/17 02:44:21;;;;;;;;;;;;;;;9.98;100.00;101770.47;10483494;28;20310;-71
2023/02/17 02:49:23;;;;;;;;;;;;;;;10.20;100.00;101741.72;10483945;28;19925;-72
2023/02/17 02:54:34;;;;;;;;;;;;;;;10.06;100.00;101735.34;10482875;28;19929;-71
2023/02/17 02:59:42;;;;;;;;;;;;;;;10.02;100.00;101717.16;10498513;28;20452;-71
2023/02/17 03:04:49;;;;;;;;;;;;;;;9.99;100.00;101711.19;10500233;28;19928;-71
2023/02/17 03:09:52;;;;;;;;;;;;;;;9.95;100.00;101723.53;10483126;28;19928;-71
2023/02/17 03:14:57;;;;;;;;;;;;;;;10.01;100.00;101740.75;10481981;28;19931;-71
2023/02/17 03:20:00;;;;;;;;;;;;;;;10.07;100.00;101729.16;10481427;28;19928;-71
2023/02/17 03:25:02;;;;;;;;;;;;;;;10.04;100.00;101738.84;10481974;28;20334;-71
2023/02/17 03:30:05;;;;;;;;;;;;;;;10.13;100.00;101724.53;10481755;28;20073;-72
2023/02/17 03:35:07;;;;;;;;;;;;;;;9.86;100.00;101729.97;10498047;28;19943;-71
2023/02/17 03:40:10;;;;;;;;;;;;;;;10.03;100.00;101731.91;10480691;28;20397;-71
2023/02/17 03:45:12;;;;;;;;;;;;;;;9.88;100.00;101719.44;10499310;28;19925;-71
2023/02/17 03:50:15;;;;;;;;;;;;;;;9.96;100.00;101734.84;10498635;28;19931;-71
2023/02/17 03:55:17;;;;;;;;;;;;;;;10.00;100.00;101708.50;10499361;28;19928;-71
2023/02/17 04:00:20;;;;;;;;;;;;;;;10.00;100.00;101713.75;10497976;28;19935;-71
2023/02/17 04:05:22;;;;;;;;;;;;;;;9.98;100.00;101685.94;10499140;28;19925;-71
2023/02/17 04:10:25;;;;;;;;;;;;;;;9.89;100.00;101700.22;10499213;28;19981;-71
2023/02/17 04:15:28;;;;;;;;;;;;;;;9.82;100.00;101715.31;10497338;28;20264;-71
2023/02/17 04:20:30;;;;;;;;;;;;;;;9.91;100.00;101703.63;10496641;28;19931;-72
2023/02/17 04:25:33;;;;;;;;;;;;;;;9.92;100.00;101688.78;10498929;28;19939;-71
2023/02/17 04:30:36;;;;;;;;;;;;;;;9.82;100.00;101707.47;10463528;28;20383;-71
2023/02/17 04:35:38;;;;;;;;;;;;;;;9.89;100.00;101707.25;10497315;28;20295;-71
2023/02/17 04:40:40;;;;;;;;;;;;;;;9.86;100.00;101710.81;10497684;28;19950;-71
2023/02/17 04:45:42;;;;;;;;;;;;;;;9.92;100.00;101715.81;10497512;28;19931;-71
2023/02/17 04:50:45;;;;;;;;;;;;;;;10.04;100.00;101701.38;10497343;28;19935;-71
2023/02/17 04:55:49;;;;;;;;;;;;;;;9.96;100.00;101693.84;10481033;28;19925;-72
2023/02/17 05:00:51;;;;;;;;;;;;;;;10.10;100.00;101690.66;10486909;28;19925;-72
2023/02/17 05:05:53;;;;;;;;;;;;;;;9.95;100.00;101684.31;10505722;28;19925;-71
2023/02/17 05:10:55;;;;;;;;;;;;;;;9.95;100.00;101671.22;10504632;28;19954;-71
2023/02/17 05:15:58;;;;;;;;;;;;;;;9.98;100.00;101665.84;10503941;28;20375;-71
2023/02/17 05:21:00;;;;;;;;;;;;;;;9.91;100.00;101687.09;10471030;28;19931;-71
2023/02/17 05:26:02;;;;;;;;;;;;;;;9.86;100.00;101693.34;10486681;28;19924;-72
2023/02/17 05:31:05;;;;;;;;;;;;;;;9.78;100.00;101699.81;10504192;28;19932;-72
2023/02/17 05:36:08;;;;;;;;;;;;;;;9.78;100.00;101712.88;10503073;28;20265;-72
2023/02/17 05:41:10;;;;;;;;;;;;;;;9.69;100.00;101711.47;10485156;28;20469;-72
2023/02/17 05:46:13;;;;;;;;;;;;;;;9.67;100.00;101721.16;10503566;28;19978;-71
2023/02/17 05:51:16;;;;;;;;;;;;;;;9.67;100.00;101708.91;10486324;28;19925;-71
2023/02/17 05:56:18;;;;;;;;;;;;;;;9.71;100.00;101714.03;10503083;28;19925;-72
2023/02/17 06:01:20;;;;;;;;;;;;;;;9.72;100.00;101702.69;10485339;28;19924;-71
2023/02/17 06:06:22;;;;;;;;;;;;;;;9.83;100.00;101677.81;10485579;28;19925;-72
2023/02/17 06:11:24;;;;;;;;;;;;;;;9.73;100.00;101717.44;10484408;28;19928;-71
2023/02/17 06:16:27;;;;;;;;;;;;;;;9.66;100.00;101698.53;10509137;22;19924;-68
2023/02/17 06:21:29;;;;;;;;;;;;;;;9.65;100.00;101692.44;10502245;28;20019;-68
2023/02/17 06:26:31;;;;;;;;;;;;;;;9.73;100.00;101709.59;10467823;28;19928;-67
2023/02/17 06:31:34;;;;;;;;;;;;;;;9.67;100.00;101693.25;10502324;28;20014;-68
2023/02/17 06:36:36;;;;;;;;;;;;;;;9.71;100.00;101708.81;10501689;28;19924;-68
2023/02/17 06:41:38;;;;;;;;;;;;;;;9.83;100.00;101705.69;10484182;28;19974;-68
2023/02/17 06:46:40;;;;;;;;;;;;;;;9.84;100.00;101689.09;10484108;28;19994;-68
2023/02/17 06:51:42;;;;;;;;;;;;;;;9.85;100.00;101688.16;10500861;28;20402;-68
2023/02/17 06:56:45;;;;;;;;;;;;;;;9.78;100.00;101690.19;10500859;28;20414;-68
2023/02/17 07:01:48;;;;;;;;;;;;;;;9.76;100.00;101694.63;10501034;28;19928;-68
2023/02/17 07:06:51;;;;;;;;;;;;;;;9.85;100.00;101701.25;10501060;28;20003;-68
2023/02/17 07:11:53;;;;;;;;;;;;;;;9.87;100.00;101683.75;10500835;28;19978;-69
2023/02/17 07:16:55;;;;;;;;;;;;;;;9.87;100.00;101683.75;10499869;28;19932;-68
2023/02/17 07:21:58;;;;;;;;;;;;;;;9.92;100.00;101683.53;10499081;28;19925;-68
2023/02/17 07:27:00;;;;;;;;;;;;;;;10.02;100.00;101666.59;10499909;28;19931;-68
2023/02/17 07:32:02;;;;;;;;;;;;;;;10.09;100.00;101664.56;10500059;28;19978;-68
2023/02/17 07:37:04;;;;;;;;;;;;;;;10.06;100.00;101655.06;10499664;28;19924;-68
2023/02/17 07:42:08;;;;;;;;;;;;;;;9.96;100.00;101662.44;10481852;28;19932;-68
2023/02/17 07:47:10;;;;;;;;;;;;;;;10.15;100.00;101675.59;10498984;28;19929;-68
2023/02/17 07:52:14;;;;;;;;;;;;;;;10.16;100.00;101660.78;10498800;28;20363;-67
2023/02/17 07:57:17;;;;;;;;;;;;;;;10.33;100.00;101674.03;10499301;28;19925;-68
2023/02/17 08:02:19;;;;;;;;;;;;;;;10.26;100.00;101653.41;10498533;28;20333;-68
2023/02/17 08:07:22;;;;;;;;;;;;;;;10.31;100.00;101669.75;10498445;28;20394;-68
2023/02/17 08:17:47;;;;;;;;;;;;;;;10.52;100.00;101663.63;10498336;28;19975;-68
2023/02/17 08:22:52;;;;;;;;;;;;;;;10.54;100.00;101647.81;10498165;28;20393;-68
2023/02/17 08:27:54;;;;;;;;;;;;;;;10.63;100.00;101651.84;10498773;28;19925;-68
2023/02/17 08:32:56;;;;;;;;;;;;;;;10.67;100.00;101648.16;10502412;28;19924;-68
2023/02/17 08:37:58;;;;;;;;;;;;;;;10.57;100.00;101651.19;10506877;28;20015;-68
2023/02/17 08:43:00;;;;;;;;;;;;;;;10.69;100.00;101656.78;10506773;28;19928;-68
2023/02/17 08:48:04;;;;;;;;;;;;;;;10.76;100.00;101668.72;10505790;28;20294;-68
2023/02/17 08:53:06;;;;;;;;;;;;;;;10.86;100.00;101679.59;10506031;28;20314;-69
2023/02/17 08:58:09;;;;;;;;;;;;;;;10.88;100.00;101685.66;10505382;28;20291;-68
2023/02/17 09:03:11;;;;;;;;;;;;;;;10.86;100.00;101685.72;10505267;28;20406;-68
2023/02/17 09:08:13;;;;;;;;;;;;;;;10.96;100.00;101699.25;10505087;28;20268;-69
2023/02/17 09:13:16;;;;;;;;;;;;;;;10.89;100.00;101709.16;10504510;28;19931;-68
2023/02/17 09:18:21;;;;;;;;;;;;;;;11.10;100.00;101723.06;10486934;28;20367;-68
2023/02/17 09:23:24;;;;;;;;;;;;;;;11.11;100.00;101718.66;10504556;28;19924;-68
2023/02/17 09:28:26;;;;;;;;;;;;;;;11.05;100.00;101711.94;10487187;28;19924;-68
2023/02/17 09:33:28;;;;;;;;;;;;;;;11.02;100.00;101716.47;10504811;28;19924;-68
2023/02/17 09:38:30;;;;;;;;;;;;;;;11.24;100.00;101721.59;10504569;28;19928;-68
2023/02/17 09:43:32;;;;;;;;;;;;;;;11.30;100.00;101726.56;10503197;28;19929;-68
2023/02/17 09:48:34;;;;;;;;;;;;;;;11.31;100.00;101726.50;10503623;28;19924;-68
2023/02/17 09:53:38;;;;;;;;;;;;;;;11.29;100.00;101725.69;10503919;28;19925;-68
2023/02/17 09:58:41;;;;;;;;;;;;;;;11.33;100.00;101702.81;10486260;28;19931;-67
2023/02/17 10:03:51;;;;;;;;;;;;;;;11.78;100.00;101712.06;10503091;28;20418;-68
2023/02/17 10:09:05;;;;;;;;;;;;;;;11.84;100.00;101696.03;10485649;28;20386;-68
2023/02/17 10:14:12;;;;;;;;;;;;;;;12.04;100.00;101686.38;10502353;28;20359;-68
2023/02/17 10:19:17;;;;;;;;;;;;;;;11.81;100.00;101687.47;10485273;28;19924;-68
2023/02/17 10:24:19;;;;;;;;;;;;;;;11.68;100.00;101680.19;10485128;28;19925;-68
2023/02/17 10:29:21;;;;;;;;;;;;;;;11.87;100.00;101689.81;10502595;28;19929;-68
2023/02/17 10:34:36;;;;;;;;;;;;;;;12.06;100.00;101700.28;10502310;28;19924;-68
2023/02/17 10:39:43;;;;;;;;;;;;;;;11.96;100.00;101713.00;10483861;28;20368;-68
2023/02/17 10:44:45;;;;;;;;;;;;;;;11.91;100.00;101725.50;10484257;28;19924;-68
2023/02/17 10:49:49;;;;;;;;;;;;;;;11.92;100.00;101732.44;10483307;28;20272;-68
2023/02/17 10:55:02;;;;;;;;;;;;;;;11.73;100.00;101736.84;10482072;28;20345;-68
2023/02/17 11:00:18;;;;;;;;;;;;;;;11.91;100.00;101743.84;10485958;28;19924;-68
2023/02/17 11:05:22;;;;;;;;;;;;;;;11.73;100.00;101724.56;10501082;28;19944;-68
2023/02/17 11:10:29;;;;;;;;;;;;;;;11.70;100.00;101712.44;10482459;28;20371;-66
2023/02/17 11:15:36;;;;;;;;;;;;;;;11.63;100.00;101697.94;10463822;28;19928;-68
2023/02/17 11:20:38;;;;;;;;;;;;;;;11.90;100.00;101694.88;10500447;28;19979;-68
2023/02/17 11:25:41;;;;;;;;;;;;;;;11.97;100.00;101693.72;10499559;28;19924;-68
2023/02/17 11:30:48;;;;;;;;;;;;;;;12.03;100.00;101703.06;10500185;28;19925;-68
2023/02/17 11:35:53;;;;;;;;;;;;;;;11.78;100.00;101705.97;10482270;28;19924;-67
2023/02/17 11:40:57;;;;;;;;;;;;;;;12.08;100.00;101704.50;10465661;28;19928;-69
2023/02/17 11:46:15;;;;;;;;;;;;;;;12.18;100.00;101706.69;10481981;28;19970;-68
2023/02/17 11:51:22;;;;;;;;;;;;;;;11.90;100.00;101716.75;10499531;28;20007;-68
2023/02/17 11:56:28;;;;;;;;;;;;;;;11.94;100.00;101712.22;10481784;28;19928;-68
2023/02/17 12:01:33;;;;;;;;;;;;;;;11.87;100.00;101727.38;10498832;28;19978;-68
2023/02/17 12:06:39;;;;;;;;;;;;;;;11.88;100.00;101726.47;10498887;28;19925;-68
2023/02/17 12:11:47;;;;;;;;;;;;;;;11.74;100.00;101704.44;10481558;28;19929;-68
2023/02/17 12:17:12;;;;;;;;;;;;;;;11.98;100.00;101715.56;10480504;28;19925;-67
2023/02/17 12:22:19;;;;;;;;;;;;;;;11.84;100.00;101719.66;10481010;28;19931;-67
2023/02/17 12:28:00;;;;;;;;;;;;;;;11.96;100.00;101720.03;10480928;28;19936;-68
2023/02/17 12:33:11;;;;;;;;;;;;;;;11.94;100.00;101729.75;10329895;28;19925;-67
2023/02/17 12:38:15;;;;;;;;;;;;;;;12.06;100.00;101734.41;10465170;28;19924;-68
2023/02/17 12:43:47;;;;;;;;;;;;;;;12.03;100.00;101742.41;10480169;28;19974;-68
2023/02/17 12:48:53;;;;;;;;;;;;;;;11.85;100.00;101742.34;10481207;28;19932;-67
2023/02/17 12:54:01;;;;;;;;;;;;;;;11.81;100.00;101759.16;10480602;28;19939;-68
2023/02/17 12:59:10;;;;;;;;;;;;;;;11.78;100.00;101775.03;10498086;28;19974;-68
2023/02/17 13:04:14;;;;;;;;;;;;;;;11.95;100.00;101778.69;10479593;28;19924;-68
2023/02/17 13:09:28;;;;;;;;;;;;;;;11.81;100.00;101792.41;10479580;28;19925;-67
2023/02/17 13:14:43;;;;;;;;;;;;;;;11.87;100.00;101803.47;10490509;28;20371;-68
2023/02/17 13:19:45;;;;;;;;;;;;;;;11.59;100.00;101805.69;10502166;28;19925;-68
2023/02/17 13:24:51;;;;;;;;;;;;;;;11.57;100.00;101821.50;10505158;28;19970;-68
2023/02/17 13:30:12;;;;;;;;;;;;;;;11.59;100.00;101827.50;10486627;28;20334;-68
2023/02/17 13:35:24;;;;;;;;;;;;;;;11.37;100.00;101842.50;10504798;28;19932;-68
2023/02/17 13:40:29;;;;;;;;;;;;;;;11.26;100.00;101835.09;10504541;28;19924;-68
2023/02/17 13:45:32;;;;;;;;;;;;;;;11.25;100.00;101857.00;10504350;28;19974;-67
2023/02/17 13:50:36;;;;;;;;;;;;;;;11.19;100.00;101854.63;10485892;28;19924;-67
2023/02/17 13:55:40;;;;;;;;;;;;;;;11.12;100.00;101847.03;10486327;28;19928;-68
2023/02/17 14:00:42;;;;;;;;;;;;;;;10.99;100.00;101853.72;10503683;28;19929;-68
2023/02/17 14:05:45;;;;;;;;;;;;;;;11.04;100.00;101864.84;10485289;28;20380;-68
2023/02/17 14:10:48;;;;;;;;;;;;;;;10.92;100.00;101852.28;10485817;28;19924;-68
2023/02/17 14:15:51;;;;;;;;;;;;;;;10.98;100.00;101857.25;10502902;28;19924;-67
2023/02/17 14:21:04;;;;;;;;;;;;;;;10.97;100.00;101847.69;10503010;28;19925;-69
2023/02/17 14:26:30;;;;;;;;;;;;;;;11.11;100.00;101823.50;10502256;28;20401;-68
2023/02/17 14:31:40;;;;;;;;;;;;;;;11.25;100.00;101813.28;10494070;28;19925;-68
2023/02/17 14:36:42;;;;;;;;;;;;;;;11.42;100.00;101828.25;10484664;28;19924;-68
2023/02/17 14:41:44;;;;;;;;;;;;;;;11.48;100.00;101806.16;10501544;28;19968;-68
2023/02/17 14:46:47;;;;;;;;;;;;;;;11.50;100.00;101815.66;10502001;28;19924;-67
2023/02/17 14:51:49;;;;;;;;;;;;;;;11.57;100.00;101825.88;10501803;28;19931;-67
2023/02/17 14:56:57;;;;;;;;;;;;;;;11.58;100.00;101830.19;10501002;28;19928;-67
2023/02/17 15:02:00;;;;;;;;;;;;;;;11.63;100.00;101839.56;10500826;28;20430;-67
2023/02/17 15:07:02;;;;;;;;;;;;;;;11.66;100.00;101823.69;10500500;28;19998;-67
2023/02/17 15:12:14;;;;;;;;;;;;;;;11.76;100.00;101836.38;10500942;28;19970;-68
2023/02/17 15:17:16;;;;;;;;;;;;;;;11.82;100.00;101828.25;10500207;28;19925;-67
2023/02/17 15:22:19;;;;;;;;;;;;;;;11.71;100.00;101855.78;10500647;28;19925;-68
2023/02/17 15:27:21;;;;;;;;;;;;;;;11.74;100.00;101856.59;10499528;28;19978;-67
2023/02/17 15:32:23;;;;;;;;;;;;;;;11.79;100.00;101862.50;10500246;28;19932;-67
2023/02/17 15:37:27;;;;;;;;;;;;;;;11.84;100.00;101837.72;10481792;28;21580;-66
2023/02/17 15:42:30;;;;;;;;;;;;;;;11.85;100.00;101855.19;10499336;28;19978;-67
2023/02/17 15:47:32;;;;;;;;;;;;;;;11.77;100.00;101880.06;10499099;28;20333;-67
2023/02/17 15:52:34;;;;;;;;;;;;;;;11.88;100.00;101876.03;10499150;28;20375;-67
2023/02/17 15:57:38;;;;;;;;;;;;;;;11.84;100.00;101873.63;10481684;28;19939;-67
2023/02/17 16:02:40;;;;;;;;;;;;;;;11.80;100.00;101883.41;10481776;28;19931;-67
2023/02/17 16:07:43;;;;;;;;;;;;;;;11.85;100.00;101909.41;10499228;28;19974;-67
2023/02/17 16:12:46;;;;;;;;;;;;;;;11.86;100.00;101904.09;10498937;28;19931;-68
2023/02/17 16:17:48;;;;;;;;;;;;;;;11.71;100.00;101928.41;10480276;28;19925;-68
2023/02/17 16:22:50;;;;;;;;;;;;;;;11.69;100.00;101922.38;10480393;28;20279;-67
2023/02/17 16:27:53;;;;;;;;;;;;;;;11.64;100.00;101953.22;10498154;28;20287;-67
2023/02/17 16:32:55;;;;;;;;;;;;;;;11.61;100.00;101948.94;10480858;28;19928;-67
2023/02/17 16:38:02;;;;;;;;;;;;;;;11.58;100.00;101950.84;10498569;28;19924;-68
2023/02/17 16:43:04;;;;;;;;;;;;;;;11.49;100.00;101971.31;10479949;28;20272;-67
2023/02/17 16:48:06;;;;;;;;;;;;;;;11.39;100.00;101961.28;10498402;28;19925;-68
2023/02/17 16:53:10;;;;;;;;;;;;;;;11.40;100.00;101958.59;10483267;28;19928;-67
2023/02/17 16:58:14;;;;;;;;;;;;;;;11.36;100.00;101977.13;10488340;28;19928;-67
2023/02/17 17:03:16;;;;;;;;;;;;;;;11.45;100.00;101984.63;10488219;28;19925;-67
2023/02/17 17:08:19;;;;;;;;;;;;;;;11.35;100.00;101976.28;10488200;28;19924;-67
2023/02/17 17:13:23;;;;;;;;;;;;;;;11.37;100.00;101982.31;10505647;28;20012;-68
2023/02/17 17:18:25;;;;;;;;;;;;;;;11.29;100.00;101989.66;10496203;28;19950;-67
2023/02/17 17:23:28;;;;;;;;;;;;;;;11.34;100.00;102019.16;10505141;28;19928;-67
2023/02/17 17:28:30;;;;;;;;;;;;;;;11.33;100.00;102013.06;10504357;28;20367;-69
2023/02/17 17:33:32;;;;;;;;;;;;;;;11.40;100.00;102018.03;10504937;28;19981;-68
2023/02/17 17:38:34;;;;;;;;;;;;;;;11.25;100.00;102020.38;10504774;28;19928;-67
2023/02/17 17:43:36;;;;;;;;;;;;;;;11.21;100.00;102029.28;10503842;28;19959;-65
2023/02/17 17:48:39;;;;;;;;;;;;;;;11.37;100.00;102029.53;10503761;28;20406;-67
2023/02/17 17:53:41;;;;;;;;;;;;;;;11.30;100.00;102035.94;10503407;28;19925;-67
2023/02/17 17:58:43;;;;;;;;;;;;;;;11.31;100.00;102035.00;10503379;28;19924;-67
2023/02/17 18:03:46;;;;;;;;;;;;;;;11.24;100.00;102055.38;10502622;28;19931;-67
2023/02/17 18:08:48;;;;;;;;;;;;;;;11.25;100.00;102051.00;10503478;28;19928;-68
2023/02/17 18:13:51;;;;;;;;;;;;;;;11.24;100.00;102058.00;10485991;28;19924;-68
2023/02/17 18:18:54;;;;;;;;;;;;;;;11.24;100.00;102065.84;10484793;28;19925;-68
2023/02/17 18:23:56;;;;;;;;;;;;;;;11.22;100.00;102067.69;10484655;28;19994;-67
2023/02/17 18:28:58;;;;;;;;;;;;;;;11.24;100.00;102071.09;10494211;22;19952;-68
2023/02/17 18:34:00;;;;;;;;;;;;;;;11.22;100.00;102080.81;10460044;28;19932;-68
2023/02/17 18:39:02;;;;;;;;;;;;;;;11.18;100.00;102084.47;10460935;28;19924;-68
2023/02/17 18:44:05;;;;;;;;;;;;;;;11.19;100.00;102067.81;10443069;28;19925;-68
2023/02/17 18:49:07;;;;;;;;;;;;;;;11.20;100.00;102085.25;10442143;28;20284;-67
2023/02/17 18:54:11;;;;;;;;;;;;;;;11.27;100.00;102081.47;10459613;28;19925;-67
2023/02/17 18:59:13;;;;;;;;;;;;;;;11.22;100.00;102075.56;10460106;28;19979;-68
2023/02/17 19:04:16;;;;;;;;;;;;;;;11.19;100.00;102082.69;10457463;28;19925;-67
2023/02/17 19:09:18;;;;;;;;;;;;;;;11.25;100.00;102103.44;10457182;28;19995;-68
2023/02/17 19:14:20;;;;;;;;;;;;;;;11.34;100.00;102142.38;10457991;28;20284;-68
2023/02/17 19:19:22;;;;;;;;;;;;;;;11.02;100.00;102160.19;10457963;28;20423;-67
2023/02/17 19:24:25;;;;;;;;;;;;;;;10.96;100.00;102173.53;10456274;28;19928;-68
2023/02/17 19:29:27;;;;;;;;;;;;;;;11.03;100.00;102174.16;10458535;28;19979;-68
2023/02/17 19:34:30;;;;;;;;;;;;;;;10.83;100.00;102195.88;10440537;28;20380;-68
2023/02/17 19:39:34;;;;;;;;;;;;;;;10.84;100.00;102192.31;10457226;28;20257;-68
2023/02/17 19:44:37;;;;;;;;;;;;;;;10.84;100.00;102190.56;10436164;28;19925;-68
2023/02/17 19:49:39;;;;;;;;;;;;;;;10.71;100.00;102174.44;10458189;28;19975;-68
2023/02/17 19:54:41;;;;;;;;;;;;;;;10.71;100.00;102179.69;10456546;28;20379;-68
2023/02/17 19:59:43;;;;;;;;;;;;;;;10.64;100.00;102172.09;10457239;28;20434;-68
2023/02/17 20:04:46;;;;;;;;;;;;;;;10.52;100.00;102171.63;10438560;28;20379;-68
2023/02/17 20:09:48;;;;;;;;;;;;;;;10.37;100.00;102180.00;10457713;28;19924;-68
2023/02/17 20:14:51;;;;;;;;;;;;;;;10.39;100.00;102194.75;10456872;28;19929;-68
2023/02/17 20:19:53;;;;;;;;;;;;;;;10.33;100.00;102218.50;10456038;28;19928;-68
2023/02/17 20:24:55;;;;;;;;;;;;;;;10.34;100.00;102203.66;10456217;28;19925;-68
2023/02/17 20:29:58;;;;;;;;;;;;;;;10.22;100.00;102210.13;10451870;28;19925;-68
2023/02/17 20:35:00;;;;;;;;;;;;;;;10.21;100.00;102211.91;10469751;28;19925;-68
2023/02/17 20:40:03;;;;;;;;;;;;;;;10.37;100.00;102208.78;10470772;28;19929;-68
2023/02/17 20:45:05;;;;;;;;;;;;;;;10.35;100.00;102200.13;10470110;28;19925;-68
2023/02/17 20:50:10;;;;;;;;;;;;;;;10.35;100.00;102208.00;10469916;28;19979;-68
2023/02/17 20:55:13;;;;;;;;;;;;;;;10.31;100.00;102204.59;10452303;28;20342;-68
2023/02/17 21:00:16;;;;;;;;;;;;;;;10.20;100.00;102211.94;10452197;28;19932;-68
2023/02/17 21:05:19;;;;;;;;;;;;;;;10.27;100.00;102223.06;10450134;28;20280;-68
2023/02/17 21:10:22;;;;;;;;;;;;;;;10.23;100.00;102210.06;10452107;28;19925;-68
2023/02/17 21:15:26;;;;;;;;;;;;;;;10.03;100.00;102212.50;10449667;28;20381;-67
2023/02/17 21:20:28;;;;;;;;;;;;;;;9.99;100.00;102219.59;10451884;28;20024;-67
2023/02/17 21:25:30;;;;;;;;;;;;;;;10.14;100.00;102223.47;10468178;28;19931;-68
2023/02/17 21:30:32;;;;;;;;;;;;;;;10.17;100.00;102215.53;10451471;28;19926;-68
2023/02/17 21:35:35;;;;;;;;;;;;;;;10.21;100.00;102218.91;10469816;28;19925;-68
2023/02/17 21:40:37;;;;;;;;;;;;;;;10.26;100.00;102230.06;10462128;28;19979;-68
2023/02/17 21:45:39;;;;;;;;;;;;;;;10.33;100.00;102226.38;10463110;28;19925;-68
2023/02/17 21:50:41;;;;;;;;;;;;;;;10.21;100.00;102217.13;10462902;28;19925;-68
2023/02/17 21:55:44;;;;;;;;;;;;;;;10.21;100.00;102218.91;10460227;28;19936;-68
2023/02/17 22:00:47;;;;;;;;;;;;;;;10.26;100.00;102210.91;10462270;28;19971;-68
2023/02/17 22:05:49;;;;;;;;;;;;;;;10.35;100.00;102206.22;10461573;28;19924;-68
2023/02/17 22:10:52;;;;;;;;;;;;;;;10.33;100.00;102202.81;10426366;28;19924;-68
2023/02/17 22:15:55;;;;;;;;;;;;;;;10.34;100.00;102206.28;10461599;28;19931;-68
2023/02/17 22:20:57;;;;;;;;;;;;;;;10.28;100.00;102211.69;10461028;28;20295;-68
2023/02/17 22:25:59;;;;;;;;;;;;;;;10.22;100.00;102212.75;10460704;28;19951;-68
2023/02/17 22:31:02;;;;;;;;;;;;;;;10.27;100.00;102212.59;10441602;28;19928;-68
2023/02/17 22:36:05;;;;;;;;;;;;;;;10.33;100.00;102209.81;10458806;28;19925;-68
2023/02/17 22:41:10;;;;;;;;;;;;;;;10.21;100.00;102237.22;10442025;28;19925;-68
2023/02/17 22:46:15;;;;;;;;;;;;;;;10.33;100.00;102222.91;10459212;28;19975;-68
2023/02/17 22:51:18;;;;;;;;;;;;;;;10.40;100.00;102219.16;10458228;28;19932;-68
2023/02/17 22:56:21;;;;;;;;;;;;;;;10.31;100.00;102216.84;10458317;28;20368;-68
2023/02/17 23:01:23;;;;;;;;;;;;;;;10.36;100.00;102207.94;10442341;28;19939;-68
2023/02/17 23:06:30;;;;;;;;;;;;;;;10.30;100.00;102212.50;10441520;28;19925;-68
2023/02/17 23:11:48;;;;;;;;;;;;;;;10.31;100.00;102198.50;10459078;28;20360;-68
2023/02/17 23:16:51;;;;;;;;;;;;;;;10.30;100.00;102194.19;10443431;28;20360;-68
2023/02/17 23:21:55;;;;;;;;;;;;;;;10.33;100.00;102187.09;10458579;28;20398;-68
2023/02/17 23:27:00;;;;;;;;;;;;;;;10.31;100.00;102188.03;10441422;28;19991;-68
2023/02/17 23:32:03;;;;;;;;;;;;;;;10.05;100.00;102187.13;10440545;28;19931;-68
2023/02/17 23:37:05;;;;;;;;;;;;;;;10.21;100.00;102190.97;10441023;28;19925;-68
2023/02/17 23:42:07;;;;;;;;;;;;;;;10.14;100.00;102189.47;10458422;28;19924;-68
2023/02/17 23:47:09;;;;;;;;;;;;;;;10.14;100.00;102173.75;10458360;28;19928;-68
2023/02/17 23:52:12;;;;;;;;;;;;;;;10.40;100.00;102178.13;10458178;28;19924;-68
2023/02/17 23:57:14;;;;;;;;;;;;;;;10.26;100.00;102169.03;10458023;28;19929;-68
